This is the latest recevied weather packets stored in our database for station/object 9M2EVR-2. If no packets are shown the sender has not sent any weather packets the latest 10 day(s).
| Time | Temp. | Humidity | Pressure | Rain* | Wind** | Luminosity | Snow |
|---|---|---|---|---|---|---|---|
| 1778099326 | 37.22° C | 48% | 1005 hPa | - | - | - | - |
| 1778098425 | 37.78° C | 48% | 1005.1 hPa | - | - | - | - |
| 1778096624 | 37.78° C | 48% | 1005.1 hPa | - | - | - | - |
| 1778095723 | 37.78° C | 48% | 1005.1 hPa | - | - | - | - |
| 1778091219 | 38.33° C | 47% | 1005.5 hPa | - | - | - | - |
| 1778090318 | 38.89° C | 45% | 1005.8 hPa | - | - | - | - |
| 1778084913 | 43.33° C | 38% | 1006.8 hPa | - | - | - | - |
| 1778082211 | 45.56° C | 35% | 1007.3 hPa | - | - | - | - |
| 1778081310 | 45.56° C | 35% | 1007.2 hPa | - | - | - | - |
| 1778074066 | 37.22° C | 48% | 1006.6 hPa | - | - | - | - |
| 1778073165 | 37.78° C | 47% | 1006 hPa | - | - | - | - |
| 1778068700 | 39.44° C | 45% | 1004 hPa | - | - | - | - |
| 1778063295 | 40° C | 47% | 1002.8 hPa | - | - | - | - |
| 1778061493 | 40.56° C | 45% | 1002.1 hPa | - | - | - | - |
| 1778059692 | 42.22° C | 41% | 1002.3 hPa | - | - | - | - |
| 1778058791 | 42.22° C | 41% | 1002.2 hPa | - | - | - | - |
| 1778056088 | 42.22° C | 41% | 1002.1 hPa | - | - | - | - |
| 1778055188 | 42.22° C | 42% | 1002 hPa | - | - | - | - |
| 1778054287 | 42.22° C | 41% | 1001.8 hPa | - | - | - | - |
| 1778052485 | 42.22° C | 41% | 1002.4 hPa | - | - | - | - |
| 1778051584 | 43.33° C | 40% | 1002.9 hPa | - | - | - | - |
| 1778050684 | 42.78° C | 37% | 1003 hPa | - | - | - | - |
| 1778048882 | 42.22° C | 40% | 1003.7 hPa | - | - | - | - |
| 1778047981 | 42.78° C | 35% | 1004.2 hPa | - | - | - | - |
| 1778047080 | 43.33° C | 40% | 1004.7 hPa | - | - | - | - |
* Rain since midnight (hover to see other rain measurements)
** Current wind speed in m/s (hover to see current wind gust speed)